Scotia, Nebraska
Current Conditions -  °F | °C
As of 1:53 AM on Sunday 26 Oct 2014 (Local Time) from KODX Reporting Station
Clear Clear  
Wind Chill: 42°   Ceiling: Unl
Heat Index: 44°   Visibility: 10mi
Dew Point: 39°   Wind: 5mph
Humidity: 82%   Direction: 30°NNE
Pressure: 29.91"   Gusts: NA
Location:  41.47°N, 98.7°W
Report Text: KODX 260653Z AUTO 03004KT 10SM CLR 07/04 A2991 RMK AO2 SLP128 T00670039
Loading
Personal Weather Stations






























Interactive Weather Map
Tropical Storm Tracking
New forecast layout! Learn more

10-Day Weather Forecast

Advertisements
Track Severe Weather on mobile